sensor_id;sensor_type;location;lat;lon;timestamp;P1;durP1;ratioP1;P2;durP2;ratioP2
69392;SDS011;56582;44.624;20.378;2023-11-21T00:01:57;9.73;;;7.15;;
69392;SDS011;56582;44.624;20.378;2023-11-21T00:04:23;9.10;;;6.70;;
69392;SDS011;56582;44.624;20.378;2023-11-21T00:06:49;8.82;;;5.47;;
69392;SDS011;56582;44.624;20.378;2023-11-21T00:09:14;9.63;;;5.72;;
69392;SDS011;56582;44.624;20.378;2023-11-21T00:11:43;7.87;;;5.17;;
69392;SDS011;56582;44.624;20.378;2023-11-21T00:14:10;7.35;;;5.22;;
69392;SDS011;56582;44.624;20.378;2023-11-21T00:16:36;9.05;;;5.97;;
69392;SDS011;56582;44.624;20.378;2023-11-21T00:19:01;8.53;;;5.27;;
69392;SDS011;56582;44.624;20.378;2023-11-21T00:21:27;9.15;;;5.43;;
69392;SDS011;56582;44.624;20.378;2023-11-21T00:23:52;11.57;;;5.30;;
69392;SDS011;56582;44.624;20.378;2023-11-21T00:26:18;8.97;;;5.33;;
69392;SDS011;56582;44.624;20.378;2023-11-21T00:28:43;7.85;;;5.53;;
69392;SDS011;56582;44.624;20.378;2023-11-21T00:31:09;7.87;;;4.83;;
69392;SDS011;56582;44.624;20.378;2023-11-21T00:33:34;9.00;;;5.23;;
69392;SDS011;56582;44.624;20.378;2023-11-21T00:36:00;10.15;;;6.28;;
69392;SDS011;56582;44.624;20.378;2023-11-21T00:38:26;9.03;;;5.37;;
69392;SDS011;56582;44.624;20.378;2023-11-21T00:40:52;9.70;;;5.95;;
69392;SDS011;56582;44.624;20.378;2023-11-21T00:43:21;8.37;;;4.63;;
69392;SDS011;56582;44.624;20.378;2023-11-21T00:45:49;10.15;;;5.88;;
69392;SDS011;56582;44.624;20.378;2023-11-21T00:48:15;11.48;;;6.72;;
69392;SDS011;56582;44.624;20.378;2023-11-21T00:50:40;9.03;;;5.20;;
69392;SDS011;56582;44.624;20.378;2023-11-21T00:53:06;8.37;;;4.87;;
69392;SDS011;56582;44.624;20.378;2023-11-21T00:55:32;9.52;;;5.85;;
69392;SDS011;56582;44.624;20.378;2023-11-21T00:57:58;8.70;;;5.50;;
69392;SDS011;56582;44.624;20.378;2023-11-21T01:00:24;10.27;;;5.60;;
69392;SDS011;56582;44.624;20.378;2023-11-21T01:02:50;9.90;;;5.73;;
69392;SDS011;56582;44.624;20.378;2023-11-21T01:05:15;8.80;;;5.03;;
69392;SDS011;56582;44.624;20.378;2023-11-21T01:07:41;9.23;;;5.47;;
69392;SDS011;56582;44.624;20.378;2023-11-21T01:10:07;11.90;;;5.13;;
69392;SDS011;56582;44.624;20.378;2023-11-21T01:12:36;10.13;;;5.65;;
69392;SDS011;56582;44.624;20.378;2023-11-21T01:15:03;8.98;;;5.60;;
69392;SDS011;56582;44.624;20.378;2023-11-21T01:17:32;9.60;;;6.22;;
69392;SDS011;56582;44.624;20.378;2023-11-21T01:19:59;8.63;;;4.97;;
69392;SDS011;56582;44.624;20.378;2023-11-21T01:22:25;9.90;;;5.13;;
69392;SDS011;56582;44.624;20.378;2023-11-21T01:24:51;9.13;;;5.95;;
69392;SDS011;56582;44.624;20.378;2023-11-21T01:27:18;9.18;;;5.75;;
69392;SDS011;56582;44.624;20.378;2023-11-21T01:29:43;9.13;;;5.80;;
69392;SDS011;56582;44.624;20.378;2023-11-21T01:32:09;8.87;;;5.83;;
69392;SDS011;56582;44.624;20.378;2023-11-21T01:34:35;9.60;;;5.78;;
69392;SDS011;56582;44.624;20.378;2023-11-21T01:37:00;12.00;;;5.43;;
69392;SDS011;56582;44.624;20.378;2023-11-21T01:39:27;9.43;;;5.05;;
69392;SDS011;56582;44.624;20.378;2023-11-21T01:41:53;9.35;;;5.72;;
69392;SDS011;56582;44.624;20.378;2023-11-21T01:44:18;9.37;;;5.60;;
69392;SDS011;56582;44.624;20.378;2023-11-21T01:46:44;9.67;;;5.63;;
69392;SDS011;56582;44.624;20.378;2023-11-21T01:49:11;9.00;;;5.75;;
69392;SDS011;56582;44.624;20.378;2023-11-21T01:51:38;11.43;;;6.60;;
69392;SDS011;56582;44.624;20.378;2023-11-21T01:54:05;8.57;;;6.03;;
69392;SDS011;56582;44.624;20.378;2023-11-21T01:56:31;9.05;;;5.82;;
69392;SDS011;56582;44.624;20.378;2023-11-21T01:58:57;9.57;;;6.00;;
69392;SDS011;56582;44.624;20.378;2023-11-21T02:01:23;9.27;;;6.22;;
69392;SDS011;56582;44.624;20.378;2023-11-21T02:03:48;9.53;;;5.53;;
69392;SDS011;56582;44.624;20.378;2023-11-21T02:06:14;10.02;;;6.43;;
69392;SDS011;56582;44.624;20.378;2023-11-21T02:08:39;11.10;;;6.30;;
69392;SDS011;56582;44.624;20.378;2023-11-21T02:11:07;8.02;;;5.03;;
69392;SDS011;56582;44.624;20.378;2023-11-21T02:13:34;9.73;;;5.00;;
69392;SDS011;56582;44.624;20.378;2023-11-21T02:16:01;8.10;;;5.53;;
69392;SDS011;56582;44.624;20.378;2023-11-21T02:18:27;8.25;;;5.07;;
69392;SDS011;56582;44.624;20.378;2023-11-21T02:20:54;9.93;;;5.88;;
69392;SDS011;56582;44.624;20.378;2023-11-21T02:23:20;9.82;;;5.45;;
69392;SDS011;56582;44.624;20.378;2023-11-21T02:25:46;8.87;;;6.23;;
69392;SDS011;56582;44.624;20.378;2023-11-21T02:28:12;7.95;;;5.00;;
69392;SDS011;56582;44.624;20.378;2023-11-21T02:30:40;8.00;;;4.75;;
69392;SDS011;56582;44.624;20.378;2023-11-21T02:33:06;7.10;;;4.40;;
69392;SDS011;56582;44.624;20.378;2023-11-21T02:35:32;7.90;;;4.57;;
69392;SDS011;56582;44.624;20.378;2023-11-21T02:37:57;7.07;;;4.33;;
69392;SDS011;56582;44.624;20.378;2023-11-21T02:40:23;7.70;;;4.72;;
69392;SDS011;56582;44.624;20.378;2023-11-21T02:42:50;6.23;;;4.33;;
69392;SDS011;56582;44.624;20.378;2023-11-21T02:45:16;6.68;;;4.03;;
69392;SDS011;56582;44.624;20.378;2023-11-21T02:47:43;7.47;;;4.10;;
69392;SDS011;56582;44.624;20.378;2023-11-21T02:50:09;7.57;;;4.13;;
69392;SDS011;56582;44.624;20.378;2023-11-21T02:52:35;7.65;;;4.60;;
69392;SDS011;56582;44.624;20.378;2023-11-21T02:55:04;6.05;;;4.45;;
69392;SDS011;56582;44.624;20.378;2023-11-21T02:57:29;6.53;;;4.10;;
69392;SDS011;56582;44.624;20.378;2023-11-21T02:59:55;6.78;;;4.20;;
69392;SDS011;56582;44.624;20.378;2023-11-21T03:02:21;6.65;;;4.38;;
69392;SDS011;56582;44.624;20.378;2023-11-21T03:04:47;6.60;;;3.47;;
69392;SDS011;56582;44.624;20.378;2023-11-21T03:07:16;9.45;;;4.30;;
69392;SDS011;56582;44.624;20.378;2023-11-21T03:09:41;5.50;;;4.13;;
69392;SDS011;56582;44.624;20.378;2023-11-21T03:12:07;7.27;;;3.90;;
69392;SDS011;56582;44.624;20.378;2023-11-21T03:14:33;6.10;;;3.88;;
69392;SDS011;56582;44.624;20.378;2023-11-21T03:16:59;6.33;;;4.63;;
69392;SDS011;56582;44.624;20.378;2023-11-21T03:19:24;7.32;;;4.10;;
69392;SDS011;56582;44.624;20.378;2023-11-21T03:21:50;5.70;;;3.83;;
69392;SDS011;56582;44.624;20.378;2023-11-21T03:24:18;7.32;;;4.35;;
69392;SDS011;56582;44.624;20.378;2023-11-21T03:26:45;6.28;;;4.05;;
69392;SDS011;56582;44.624;20.378;2023-11-21T03:29:11;6.20;;;3.37;;
69392;SDS011;56582;44.624;20.378;2023-11-21T03:31:37;6.85;;;3.53;;
69392;SDS011;56582;44.624;20.378;2023-11-21T03:34:03;6.32;;;4.20;;
69392;SDS011;56582;44.624;20.378;2023-11-21T03:36:29;7.77;;;4.80;;
69392;SDS011;56582;44.624;20.378;2023-11-21T03:38:54;8.68;;;3.90;;
69392;SDS011;56582;44.624;20.378;2023-11-21T03:41:20;6.87;;;4.07;;
69392;SDS011;56582;44.624;20.378;2023-11-21T03:43:46;6.00;;;4.22;;
69392;SDS011;56582;44.624;20.378;2023-11-21T03:46:11;5.93;;;4.20;;
69392;SDS011;56582;44.624;20.378;2023-11-21T03:48:37;7.28;;;3.70;;
69392;SDS011;56582;44.624;20.378;2023-11-21T03:51:03;8.90;;;4.53;;
69392;SDS011;56582;44.624;20.378;2023-11-21T03:53:29;6.55;;;4.15;;
69392;SDS011;56582;44.624;20.378;2023-11-21T03:55:54;6.00;;;3.97;;
69392;SDS011;56582;44.624;20.378;2023-11-21T03:58:20;6.60;;;4.03;;
69392;SDS011;56582;44.624;20.378;2023-11-21T04:00:46;8.77;;;4.17;;
69392;SDS011;56582;44.624;20.378;2023-11-21T04:03:14;6.88;;;4.35;;
69392;SDS011;56582;44.624;20.378;2023-11-21T04:05:40;6.90;;;3.53;;
69392;SDS011;56582;44.624;20.378;2023-11-21T04:08:06;6.32;;;4.65;;
69392;SDS011;56582;44.624;20.378;2023-11-21T04:10:32;5.80;;;3.67;;
69392;SDS011;56582;44.624;20.378;2023-11-21T04:12:57;6.67;;;4.40;;
69392;SDS011;56582;44.624;20.378;2023-11-21T04:15:23;6.28;;;4.32;;
69392;SDS011;56582;44.624;20.378;2023-11-21T04:17:49;8.37;;;4.90;;
69392;SDS011;56582;44.624;20.378;2023-11-21T04:20:14;6.63;;;3.93;;
69392;SDS011;56582;44.624;20.378;2023-11-21T04:22:40;7.82;;;4.40;;
69392;SDS011;56582;44.624;20.378;2023-11-21T04:25:12;6.93;;;4.63;;
69392;SDS011;56582;44.624;20.378;2023-11-21T04:27:39;6.50;;;4.70;;
69392;SDS011;56582;44.624;20.378;2023-11-21T04:30:06;6.75;;;4.53;;
69392;SDS011;56582;44.624;20.378;2023-11-21T04:32:32;6.10;;;4.15;;
69392;SDS011;56582;44.624;20.378;2023-11-21T04:34:58;7.82;;;4.50;;
69392;SDS011;56582;44.624;20.378;2023-11-21T04:37:24;6.30;;;4.67;;
69392;SDS011;56582;44.624;20.378;2023-11-21T04:39:50;6.78;;;4.32;;
69392;SDS011;56582;44.624;20.378;2023-11-21T04:42:16;6.60;;;4.43;;
69392;SDS011;56582;44.624;20.378;2023-11-21T04:44:42;6.78;;;4.03;;
69392;SDS011;56582;44.624;20.378;2023-11-21T04:47:09;6.72;;;4.30;;
69392;SDS011;56582;44.624;20.378;2023-11-21T04:49:34;9.10;;;4.70;;
69392;SDS011;56582;44.624;20.378;2023-11-21T04:52:00;6.03;;;4.43;;
69392;SDS011;56582;44.624;20.378;2023-11-21T04:54:26;8.52;;;4.60;;
69392;SDS011;56582;44.624;20.378;2023-11-21T04:56:52;6.80;;;4.03;;
69392;SDS011;56582;44.624;20.378;2023-11-21T04:59:17;6.47;;;3.90;;
69392;SDS011;56582;44.624;20.378;2023-11-21T05:01:43;6.78;;;4.43;;
69392;SDS011;56582;44.624;20.378;2023-11-21T05:04:09;6.80;;;4.80;;
69392;SDS011;56582;44.624;20.378;2023-11-21T05:06:34;12.30;;;5.20;;
69392;SDS011;56582;44.624;20.378;2023-11-21T05:09:00;8.07;;;4.82;;
69392;SDS011;56582;44.624;20.378;2023-11-21T05:11:26;6.90;;;4.40;;
69392;SDS011;56582;44.624;20.378;2023-11-21T05:13:55;6.20;;;4.25;;
69392;SDS011;56582;44.624;20.378;2023-11-21T05:16:22;9.70;;;4.72;;
69392;SDS011;56582;44.624;20.378;2023-11-21T05:18:47;6.63;;;3.73;;
69392;SDS011;56582;44.624;20.378;2023-11-21T05:21:15;7.57;;;4.53;;
69392;SDS011;56582;44.624;20.378;2023-11-21T05:23:41;6.33;;;4.30;;
69392;SDS011;56582;44.624;20.378;2023-11-21T05:26:06;6.73;;;3.73;;
69392;SDS011;56582;44.624;20.378;2023-11-21T05:28:32;5.82;;;4.00;;
69392;SDS011;56582;44.624;20.378;2023-11-21T05:30:57;6.47;;;4.07;;
69392;SDS011;56582;44.624;20.378;2023-11-21T05:33:23;6.13;;;4.23;;
69392;SDS011;56582;44.624;20.378;2023-11-21T05:35:48;7.70;;;4.03;;
69392;SDS011;56582;44.624;20.378;2023-11-21T05:38:14;7.20;;;3.87;;
69392;SDS011;56582;44.624;20.378;2023-11-21T05:40:39;6.30;;;3.63;;
69392;SDS011;56582;44.624;20.378;2023-11-21T05:43:06;10.30;;;5.53;;
69392;SDS011;56582;44.624;20.378;2023-11-21T05:45:32;51.47;;;20.35;;
69392;SDS011;56582;44.624;20.378;2023-11-21T05:47:58;26.90;;;14.23;;
69392;SDS011;56582;44.624;20.378;2023-11-21T05:50:23;19.10;;;9.55;;
69392;SDS011;56582;44.624;20.378;2023-11-21T05:52:49;25.53;;;16.20;;
69392;SDS011;56582;44.624;20.378;2023-11-21T05:55:14;17.83;;;12.80;;
69392;SDS011;56582;44.624;20.378;2023-11-21T05:57:41;9.18;;;5.38;;
69392;SDS011;56582;44.624;20.378;2023-11-21T06:00:11;7.05;;;4.18;;
69392;SDS011;56582;44.624;20.378;2023-11-21T06:02:57;8.25;;;4.15;;
69392;SDS011;56582;44.624;20.378;2023-11-21T06:05:23;9.00;;;5.50;;
69392;SDS011;56582;44.624;20.378;2023-11-21T06:07:50;9.25;;;5.65;;
69392;SDS011;56582;44.624;20.378;2023-11-21T06:10:17;10.80;;;8.13;;
69392;SDS011;56582;44.624;20.378;2023-11-21T06:12:44;11.93;;;9.63;;
69392;SDS011;56582;44.624;20.378;2023-11-21T06:15:10;11.85;;;9.60;;
69392;SDS011;56582;44.624;20.378;2023-11-21T06:17:39;13.05;;;11.10;;
69392;SDS011;56582;44.624;20.378;2023-11-21T06:20:06;8.33;;;5.93;;
69392;SDS011;56582;44.624;20.378;2023-11-21T06:22:39;9.95;;;7.40;;
69392;SDS011;56582;44.624;20.378;2023-11-21T06:25:06;12.40;;;9.77;;
69392;SDS011;56582;44.624;20.378;2023-11-21T06:27:33;41.22;;;27.80;;
69392;SDS011;56582;44.624;20.378;2023-11-21T06:29:59;52.17;;;35.63;;
69392;SDS011;56582;44.624;20.378;2023-11-21T06:32:24;43.40;;;28.90;;
69392;SDS011;56582;44.624;20.378;2023-11-21T06:34:51;18.40;;;13.02;;
69392;SDS011;56582;44.624;20.378;2023-11-21T06:37:19;10.50;;;7.22;;
69392;SDS011;56582;44.624;20.378;2023-11-21T06:39:48;10.47;;;5.40;;
69392;SDS011;56582;44.624;20.378;2023-11-21T06:42:14;18.38;;;14.02;;
69392;SDS011;56582;44.624;20.378;2023-11-21T06:44:40;12.73;;;8.80;;
69392;SDS011;56582;44.624;20.378;2023-11-21T06:47:06;12.60;;;10.85;;
69392;SDS011;56582;44.624;20.378;2023-11-21T06:49:32;10.10;;;9.02;;
69392;SDS011;56582;44.624;20.378;2023-11-21T06:51:58;8.30;;;6.13;;
69392;SDS011;56582;44.624;20.378;2023-11-21T06:54:24;9.97;;;6.33;;
69392;SDS011;56582;44.624;20.378;2023-11-21T06:56:49;9.18;;;6.20;;
69392;SDS011;56582;44.624;20.378;2023-11-21T06:59:15;8.33;;;5.57;;
69392;SDS011;56582;44.624;20.378;2023-11-21T07:01:40;10.43;;;6.57;;
69392;SDS011;56582;44.624;20.378;2023-11-21T07:04:06;10.05;;;5.90;;
69392;SDS011;56582;44.624;20.378;2023-11-21T07:06:33;10.83;;;5.00;;
69392;SDS011;56582;44.624;20.378;2023-11-21T07:08:59;8.93;;;5.15;;
69392;SDS011;56582;44.624;20.378;2023-11-21T07:11:26;8.85;;;5.55;;
69392;SDS011;56582;44.624;20.378;2023-11-21T07:13:52;30.02;;;16.63;;
69392;SDS011;56582;44.624;20.378;2023-11-21T07:16:18;23.17;;;13.13;;
69392;SDS011;56582;44.624;20.378;2023-11-21T07:18:44;9.15;;;6.30;;
69392;SDS011;56582;44.624;20.378;2023-11-21T07:21:09;7.72;;;5.75;;
69392;SDS011;56582;44.624;20.378;2023-11-21T07:23:37;9.23;;;6.13;;
69392;SDS011;56582;44.624;20.378;2023-11-21T07:26:03;8.80;;;5.95;;
69392;SDS011;56582;44.624;20.378;2023-11-21T07:28:28;10.43;;;6.30;;
69392;SDS011;56582;44.624;20.378;2023-11-21T07:30:55;11.37;;;7.10;;
69392;SDS011;56582;44.624;20.378;2023-11-21T07:33:20;10.85;;;7.25;;
69392;SDS011;56582;44.624;20.378;2023-11-21T07:35:46;15.30;;;10.20;;
69392;SDS011;56582;44.624;20.378;2023-11-21T07:38:12;12.90;;;8.60;;
69392;SDS011;56582;44.624;20.378;2023-11-21T07:40:38;13.75;;;9.10;;
69392;SDS011;56582;44.624;20.378;2023-11-21T07:43:03;17.83;;;11.80;;
69392;SDS011;56582;44.624;20.378;2023-11-21T07:45:30;13.15;;;8.43;;
69392;SDS011;56582;44.624;20.378;2023-11-21T07:47:56;17.40;;;10.53;;
69392;SDS011;56582;44.624;20.378;2023-11-21T07:50:22;14.52;;;10.52;;
69392;SDS011;56582;44.624;20.378;2023-11-21T07:52:48;17.30;;;9.73;;
69392;SDS011;56582;44.624;20.378;2023-11-21T07:55:14;14.48;;;10.00;;
69392;SDS011;56582;44.624;20.378;2023-11-21T07:57:40;16.42;;;11.00;;
69392;SDS011;56582;44.624;20.378;2023-11-21T08:00:06;16.77;;;10.67;;
69392;SDS011;56582;44.624;20.378;2023-11-21T08:02:34;17.77;;;11.20;;
69392;SDS011;56582;44.624;20.378;2023-11-21T08:04:59;16.02;;;9.63;;
69392;SDS011;56582;44.624;20.378;2023-11-21T08:07:25;15.57;;;10.67;;
69392;SDS011;56582;44.624;20.378;2023-11-21T08:09:51;14.83;;;10.67;;
69392;SDS011;56582;44.624;20.378;2023-11-21T08:12:17;16.63;;;10.53;;
69392;SDS011;56582;44.624;20.378;2023-11-21T08:14:45;16.70;;;10.88;;
69392;SDS011;56582;44.624;20.378;2023-11-21T08:17:10;22.57;;;12.10;;
69392;SDS011;56582;44.624;20.378;2023-11-21T08:19:36;23.20;;;13.33;;
69392;SDS011;56582;44.624;20.378;2023-11-21T08:22:02;25.60;;;13.15;;
69392;SDS011;56582;44.624;20.378;2023-11-21T08:24:28;21.27;;;13.23;;
69392;SDS011;56582;44.624;20.378;2023-11-21T08:26:54;24.40;;;15.13;;
69392;SDS011;56582;44.624;20.378;2023-11-21T08:29:19;20.60;;;12.63;;
69392;SDS011;56582;44.624;20.378;2023-11-21T08:31:45;22.27;;;13.95;;
69392;SDS011;56582;44.624;20.378;2023-11-21T08:34:12;18.85;;;12.13;;
69392;SDS011;56582;44.624;20.378;2023-11-21T08:36:41;19.97;;;12.40;;
69392;SDS011;56582;44.624;20.378;2023-11-21T08:39:08;17.05;;;11.43;;
69392;SDS011;56582;44.624;20.378;2023-11-21T08:41:34;18.95;;;11.48;;
69392;SDS011;56582;44.624;20.378;2023-11-21T08:44:00;13.47;;;8.63;;
69392;SDS011;56582;44.624;20.378;2023-11-21T08:46:25;16.77;;;9.53;;
69392;SDS011;56582;44.624;20.378;2023-11-21T08:48:51;14.33;;;8.87;;
69392;SDS011;56582;44.624;20.378;2023-11-21T08:51:17;13.38;;;8.82;;
69392;SDS011;56582;44.624;20.378;2023-11-21T08:53:43;15.50;;;7.67;;
69392;SDS011;56582;44.624;20.378;2023-11-21T08:56:14;12.40;;;7.73;;
69392;SDS011;56582;44.624;20.378;2023-11-21T08:58:40;35.35;;;18.23;;
69392;SDS011;56582;44.624;20.378;2023-11-21T09:01:06;13.50;;;9.45;;
69392;SDS011;56582;44.624;20.378;2023-11-21T09:03:32;20.37;;;12.53;;
69392;SDS011;56582;44.624;20.378;2023-11-21T09:05:59;16.67;;;10.80;;
69392;SDS011;56582;44.624;20.378;2023-11-21T09:08:25;15.32;;;9.65;;
69392;SDS011;56582;44.624;20.378;2023-11-21T09:10:53;20.73;;;14.50;;
69392;SDS011;56582;44.624;20.378;2023-11-21T09:13:18;17.60;;;11.80;;
69392;SDS011;56582;44.624;20.378;2023-11-21T09:15:44;15.17;;;9.77;;
69392;SDS011;56582;44.624;20.378;2023-11-21T09:18:13;13.25;;;8.77;;
69392;SDS011;56582;44.624;20.378;2023-11-21T09:20:38;12.18;;;8.45;;
69392;SDS011;56582;44.624;20.378;2023-11-21T09:23:04;14.60;;;8.73;;
69392;SDS011;56582;44.624;20.378;2023-11-21T09:25:29;14.00;;;8.33;;
69392;SDS011;56582;44.624;20.378;2023-11-21T09:27:55;13.93;;;7.97;;
69392;SDS011;56582;44.624;20.378;2023-11-21T09:30:22;12.00;;;7.70;;
69392;SDS011;56582;44.624;20.378;2023-11-21T09:32:49;14.55;;;7.85;;
69392;SDS011;56582;44.624;20.378;2023-11-21T09:35:15;13.48;;;7.85;;
69392;SDS011;56582;44.624;20.378;2023-11-21T09:37:45;11.30;;;7.00;;
69392;SDS011;56582;44.624;20.378;2023-11-21T09:40:11;11.85;;;7.40;;
69392;SDS011;56582;44.624;20.378;2023-11-21T09:47:52;15.95;;;8.90;;
69392;SDS011;56582;44.624;20.378;2023-11-21T09:50:19;15.82;;;9.48;;
69392;SDS011;56582;44.624;20.378;2023-11-21T09:55:31;17.20;;;10.60;;
69392;SDS011;56582;44.624;20.378;2023-11-21T09:58:04;16.15;;;10.07;;
69392;SDS011;56582;44.624;20.378;2023-11-21T10:00:32;17.10;;;11.52;;
69392;SDS011;56582;44.624;20.378;2023-11-21T10:02:58;19.95;;;12.75;;
69392;SDS011;56582;44.624;20.378;2023-11-21T10:05:25;20.83;;;12.48;;
69392;SDS011;56582;44.624;20.378;2023-11-21T10:07:50;20.37;;;11.87;;
69392;SDS011;56582;44.624;20.378;2023-11-21T10:10:20;21.15;;;12.30;;
69392;SDS011;56582;44.624;20.378;2023-11-21T10:12:48;21.17;;;13.00;;
69392;SDS011;56582;44.624;20.378;2023-11-21T10:15:18;19.80;;;12.07;;
69392;SDS011;56582;44.624;20.378;2023-11-21T10:17:46;20.97;;;12.17;;
69392;SDS011;56582;44.624;20.378;2023-11-21T10:20:19;19.90;;;11.45;;
69392;SDS011;56582;44.624;20.378;2023-11-21T10:22:45;16.23;;;10.52;;
69392;SDS011;56582;44.624;20.378;2023-11-21T10:25:10;19.25;;;12.25;;
69392;SDS011;56582;44.624;20.378;2023-11-21T10:27:39;21.93;;;12.90;;
69392;SDS011;56582;44.624;20.378;2023-11-21T10:30:06;23.48;;;15.73;;
69392;SDS011;56582;44.624;20.378;2023-11-21T10:32:33;22.13;;;14.20;;
69392;SDS011;56582;44.624;20.378;2023-11-21T10:34:59;23.17;;;13.93;;
69392;SDS011;56582;44.624;20.378;2023-11-21T10:37:34;17.40;;;11.65;;
69392;SDS011;56582;44.624;20.378;2023-11-21T10:40:00;16.85;;;10.77;;
69392;SDS011;56582;44.624;20.378;2023-11-21T10:42:26;18.10;;;10.90;;
69392;SDS011;56582;44.624;20.378;2023-11-21T10:44:54;16.85;;;11.40;;
69392;SDS011;56582;44.624;20.378;2023-11-21T10:47:20;19.73;;;14.93;;
69392;SDS011;56582;44.624;20.378;2023-11-21T10:49:51;15.93;;;11.43;;
69392;SDS011;56582;44.624;20.378;2023-11-21T10:52:18;17.23;;;10.90;;
69392;SDS011;56582;44.624;20.378;2023-11-21T10:54:45;15.70;;;11.33;;
69392;SDS011;56582;44.624;20.378;2023-11-21T10:57:10;17.67;;;10.52;;
69392;SDS011;56582;44.624;20.378;2023-11-21T10:59:42;21.77;;;13.32;;
69392;SDS011;56582;44.624;20.378;2023-11-21T11:02:21;77.55;;;28.58;;
69392;SDS011;56582;44.624;20.378;2023-11-21T11:04:53;55.17;;;24.65;;
69392;SDS011;56582;44.624;20.378;2023-11-21T11:07:21;46.13;;;19.47;;
69392;SDS011;56582;44.624;20.378;2023-11-21T11:09:50;35.35;;;18.08;;
69392;SDS011;56582;44.624;20.378;2023-11-21T11:12:17;105.72;;;41.20;;
69392;SDS011;56582;44.624;20.378;2023-11-21T11:14:44;50.88;;;24.42;;
69392;SDS011;56582;44.624;20.378;2023-11-21T11:17:10;36.43;;;22.83;;
69392;SDS011;56582;44.624;20.378;2023-11-21T11:19:36;32.37;;;21.73;;
69392;SDS011;56582;44.624;20.378;2023-11-21T11:27:50;42.05;;;25.17;;
69392;SDS011;56582;44.624;20.378;2023-11-21T11:33:31;53.13;;;28.63;;
69392;SDS011;56582;44.624;20.378;2023-11-21T11:36:10;53.88;;;29.25;;
69392;SDS011;56582;44.624;20.378;2023-11-21T11:38:38;61.65;;;40.28;;
69392;SDS011;56582;44.624;20.378;2023-11-21T11:41:10;45.65;;;27.40;;
69392;SDS011;56582;44.624;20.378;2023-11-21T11:43:35;54.30;;;31.27;;
69392;SDS011;56582;44.624;20.378;2023-11-21T11:46:10;49.22;;;31.85;;
69392;SDS011;56582;44.624;20.378;2023-11-21T11:48:40;49.23;;;29.97;;
69392;SDS011;56582;44.624;20.378;2023-11-21T11:53:46;45.83;;;28.52;;
69392;SDS011;56582;44.624;20.378;2023-11-21T11:58:48;56.03;;;33.97;;
69392;SDS011;56582;44.624;20.378;2023-11-21T12:01:19;55.35;;;35.35;;
69392;SDS011;56582;44.624;20.378;2023-11-21T12:04:21;50.35;;;30.55;;
69392;SDS011;56582;44.624;20.378;2023-11-21T12:06:41;50.30;;;31.20;;
69392;SDS011;56582;44.624;20.378;2023-11-21T12:09:12;45.73;;;28.77;;
69392;SDS011;56582;44.624;20.378;2023-11-21T12:11:50;45.40;;;28.10;;
69392;SDS011;56582;44.624;20.378;2023-11-21T12:14:16;42.83;;;27.77;;
69392;SDS011;56582;44.624;20.378;2023-11-21T12:16:43;49.47;;;32.03;;
69392;SDS011;56582;44.624;20.378;2023-11-21T12:19:11;45.22;;;28.60;;
69392;SDS011;56582;44.624;20.378;2023-11-21T12:21:37;45.07;;;27.27;;
69392;SDS011;56582;44.624;20.378;2023-11-21T12:24:04;43.60;;;27.80;;
69392;SDS011;56582;44.624;20.378;2023-11-21T12:26:33;51.58;;;33.28;;
69392;SDS011;56582;44.624;20.378;2023-11-21T12:29:01;47.55;;;31.52;;
69392;SDS011;56582;44.624;20.378;2023-11-21T12:31:29;46.28;;;29.38;;
69392;SDS011;56582;44.624;20.378;2023-11-21T12:33:55;43.03;;;28.00;;
69392;SDS011;56582;44.624;20.378;2023-11-21T12:36:21;42.42;;;27.40;;
69392;SDS011;56582;44.624;20.378;2023-11-21T12:38:47;44.35;;;28.48;;
69392;SDS011;56582;44.624;20.378;2023-11-21T12:41:13;47.10;;;29.47;;
69392;SDS011;56582;44.624;20.378;2023-11-21T12:43:40;47.35;;;30.05;;
69392;SDS011;56582;44.624;20.378;2023-11-21T12:46:09;46.83;;;30.27;;
69392;SDS011;56582;44.624;20.378;2023-11-21T12:48:38;48.50;;;30.43;;
69392;SDS011;56582;44.624;20.378;2023-11-21T12:51:07;47.22;;;29.65;;
69392;SDS011;56582;44.624;20.378;2023-11-21T12:53:34;49.63;;;31.55;;
69392;SDS011;56582;44.624;20.378;2023-11-21T12:56:12;51.55;;;35.53;;
69392;SDS011;56582;44.624;20.378;2023-11-21T12:58:39;68.82;;;42.65;;
69392;SDS011;56582;44.624;20.378;2023-11-21T13:01:07;75.53;;;44.80;;
69392;SDS011;56582;44.624;20.378;2023-11-21T13:03:39;82.22;;;49.22;;
69392;SDS011;56582;44.624;20.378;2023-11-21T13:06:05;79.63;;;48.30;;
69392;SDS011;56582;44.624;20.378;2023-11-21T13:08:32;82.63;;;49.42;;
69392;SDS011;56582;44.624;20.378;2023-11-21T13:10:59;94.93;;;56.67;;
69392;SDS011;56582;44.624;20.378;2023-11-21T13:13:26;80.27;;;47.37;;
69392;SDS011;56582;44.624;20.378;2023-11-21T13:15:54;89.85;;;53.38;;
69392;SDS011;56582;44.624;20.378;2023-11-21T13:18:21;79.80;;;50.80;;
69392;SDS011;56582;44.624;20.378;2023-11-21T13:20:57;80.70;;;51.08;;
69392;SDS011;56582;44.624;20.378;2023-11-21T13:23:24;94.45;;;59.22;;
69392;SDS011;56582;44.624;20.378;2023-11-21T13:25:50;81.53;;;52.13;;
69392;SDS011;56582;44.624;20.378;2023-11-21T13:28:16;82.78;;;48.13;;
69392;SDS011;56582;44.624;20.378;2023-11-21T13:30:49;82.05;;;49.10;;
69392;SDS011;56582;44.624;20.378;2023-11-21T13:33:17;83.43;;;51.05;;
69392;SDS011;56582;44.624;20.378;2023-11-21T13:35:46;75.67;;;43.73;;
69392;SDS011;56582;44.624;20.378;2023-11-21T13:38:17;73.65;;;44.60;;
69392;SDS011;56582;44.624;20.378;2023-11-21T13:40:47;70.72;;;44.05;;
69392;SDS011;56582;44.624;20.378;2023-11-21T13:43:17;76.93;;;45.72;;
69392;SDS011;56582;44.624;20.378;2023-11-21T13:45:45;80.97;;;49.60;;
69392;SDS011;56582;44.624;20.378;2023-11-21T13:48:12;108.80;;;59.00;;
69392;SDS011;56582;44.624;20.378;2023-11-21T13:50:45;83.93;;;47.25;;
69392;SDS011;56582;44.624;20.378;2023-11-21T13:53:22;74.28;;;45.17;;
69392;SDS011;56582;44.624;20.378;2023-11-21T13:55:49;71.18;;;41.17;;
69392;SDS011;56582;44.624;20.378;2023-11-21T13:58:23;71.47;;;42.80;;
69392;SDS011;56582;44.624;20.378;2023-11-21T14:01:00;66.10;;;41.83;;
69392;SDS011;56582;44.624;20.378;2023-11-21T14:03:26;65.15;;;42.30;;
69392;SDS011;56582;44.624;20.378;2023-11-21T14:06:04;67.00;;;42.03;;
69392;SDS011;56582;44.624;20.378;2023-11-21T14:08:39;68.60;;;41.33;;
69392;SDS011;56582;44.624;20.378;2023-11-21T14:11:07;62.93;;;38.97;;
69392;SDS011;56582;44.624;20.378;2023-11-21T14:13:36;60.65;;;38.95;;
69392;SDS011;56582;44.624;20.378;2023-11-21T14:16:01;60.00;;;36.80;;
69392;SDS011;56582;44.624;20.378;2023-11-21T14:18:27;61.60;;;38.72;;
69392;SDS011;56582;44.624;20.378;2023-11-21T14:20:59;62.80;;;36.60;;
69392;SDS011;56582;44.624;20.378;2023-11-21T14:23:25;58.78;;;37.67;;
69392;SDS011;56582;44.624;20.378;2023-11-21T14:25:50;60.57;;;35.87;;
69392;SDS011;56582;44.624;20.378;2023-11-21T14:28:17;56.65;;;36.10;;
69392;SDS011;56582;44.624;20.378;2023-11-21T14:30:44;59.33;;;39.35;;
69392;SDS011;56582;44.624;20.378;2023-11-21T14:33:11;58.70;;;35.77;;
69392;SDS011;56582;44.624;20.378;2023-11-21T14:35:37;57.40;;;37.20;;
69392;SDS011;56582;44.624;20.378;2023-11-21T14:38:09;59.55;;;38.50;;
69392;SDS011;56582;44.624;20.378;2023-11-21T14:40:35;49.50;;;32.30;;
69392;SDS011;56582;44.624;20.378;2023-11-21T14:43:03;146.18;;;73.57;;